Time;durP1;ratioP1;P1;durP2;ratioP2;P2;SDS_P1;SDS_P2;PMS_P1;PMS_P2;Temp;Humidity;BMP_temperature;BMP_pressure;BME280_temperature;BME280_humidity;BME280_pressure;Samples;Min_cycle;Max_cycle;Signal;HPM_P1;HPM_P2
2023/07/22 00:00:31;;;;;;;13.10;6.43;;;13.50;99.90;;;;;;5095925;28;20313;-78
2023/07/22 00:02:58;;;;;;;12.57;7.10;;;13.60;99.90;;;;;;5095461;28;20669;-80
2023/07/22 00:05:25;;;;;;;13.55;6.90;;;13.50;99.90;;;;;;5096550;28;20293;-80
2023/07/22 00:07:52;;;;;;;12.02;6.43;;;13.50;99.90;;;;;;5096219;28;20558;-78
2023/07/22 00:10:19;;;;;;;11.32;6.78;;;13.40;99.90;;;;;;5095664;28;20903;-81
2023/07/22 00:12:46;;;;;;;10.57;6.78;;;13.50;99.90;;;;;;5095585;28;20217;-80
2023/07/22 00:15:12;;;;;;;12.55;6.82;;;13.50;99.90;;;;;;5094842;28;20194;-81
2023/07/22 00:17:42;;;;;;;12.68;6.38;;;13.40;99.90;;;;;;5095678;28;20219;-81
2023/07/22 00:20:11;;;;;;;13.05;7.47;;;13.30;99.90;;;;;;5095563;28;20246;-77
2023/07/22 00:22:39;;;;;;;13.00;7.22;;;13.20;99.90;;;;;;5096077;28;20256;-79
2023/07/22 00:25:09;;;;;;;13.10;6.80;;;13.20;99.90;;;;;;5095635;28;20197;-81
2023/07/22 00:27:37;;;;;;;12.93;7.47;;;13.30;99.90;;;;;;5094707;28;20193;-81
2023/07/22 00:30:04;;;;;;;11.32;7.63;;;13.30;99.90;;;;;;5095302;28;20236;-79
2023/07/22 00:32:31;;;;;;;13.18;6.90;;;13.40;99.90;;;;;;5095401;28;20213;-79
2023/07/22 00:34:59;;;;;;;13.30;7.20;;;13.30;99.90;;;;;;5095332;28;20228;-80
2023/07/22 00:37:26;;;;;;;11.55;7.43;;;13.20;99.90;;;;;;5095406;28;20202;-79
2023/07/22 00:39:53;;;;;;;12.60;6.97;;;13.30;99.90;;;;;;5096255;28;20669;-80
2023/07/22 00:42:20;;;;;;;13.33;7.53;;;13.30;99.90;;;;;;5094885;28;20271;-79
2023/07/22 00:44:47;;;;;;;12.23;8.20;;;13.30;99.90;;;;;;5095137;28;20205;-80
2023/07/22 00:47:14;;;;;;;12.50;7.40;;;13.40;99.90;;;;;;5095753;28;20205;-79
2023/07/22 00:49:42;;;;;;;14.95;7.88;;;13.40;99.90;;;;;;5095567;28;20194;-80
2023/07/22 00:52:10;;;;;;;11.27;7.35;;;13.40;99.90;;;;;;5095441;28;20308;-80
2023/07/22 00:54:37;;;;;;;17.10;6.90;;;13.40;99.90;;;;;;5095719;28;20736;-80
2023/07/22 00:57:04;;;;;;;13.73;7.30;;;13.30;99.90;;;;;;5094456;28;20205;-78
2023/07/22 00:59:31;;;;;;;14.05;7.25;;;13.30;99.90;;;;;;5095375;28;20194;-80
2023/07/22 01:01:58;;;;;;;12.77;7.13;;;13.20;99.90;;;;;;5094901;28;20679;-77
2023/07/22 01:04:26;;;;;;;14.18;8.13;;;13.20;99.90;;;;;;5093989;28;20684;-81
2023/07/22 01:06:53;;;;;;;12.82;7.68;;;13.10;99.90;;;;;;5094770;28;20204;-79
2023/07/22 01:09:22;;;;;;;10.00;6.93;;;13.20;99.90;;;;;;5094652;28;20579;-77
2023/07/22 01:11:48;;;;;;;10.87;7.40;;;13.10;99.90;;;;;;5094673;28;20217;-77
2023/07/22 01:14:15;;;;;;;17.23;8.03;;;13.20;99.90;;;;;;5094192;28;20247;-80
2023/07/22 01:16:43;;;;;;;15.63;9.63;;;13.10;99.90;;;;;;5094321;28;20205;-79
2023/07/22 01:19:11;;;;;;;14.50;8.52;;;13.10;99.90;;;;;;5080879;28;20190;-81
2023/07/22 01:21:39;;;;;;;14.67;9.00;;;13.10;99.90;;;;;;5094538;28;20225;-81
2023/07/22 01:24:07;;;;;;;12.63;8.10;;;13.10;99.90;;;;;;5094752;28;20224;-80
2023/07/22 01:26:34;;;;;;;14.75;8.32;;;13.00;99.90;;;;;;5094047;28;20202;-80
2023/07/22 01:29:05;;;;;;;15.20;8.47;;;12.90;99.90;;;;;;5094919;28;20208;-77
2023/07/22 01:31:34;;;;;;;12.70;8.07;;;13.00;99.90;;;;;;5093494;28;20263;-79
2023/07/22 01:34:01;;;;;;;14.27;8.20;;;13.00;99.90;;;;;;5094466;28;20236;-81
2023/07/22 01:36:28;;;;;;;14.10;7.83;;;12.90;99.90;;;;;;5094902;28;20244;-78
2023/07/22 01:38:55;;;;;;;15.47;8.40;;;13.00;99.90;;;;;;5094632;28;20198;-79
2023/07/22 01:41:23;;;;;;;13.20;7.60;;;12.80;99.90;;;;;;5094439;28;20221;-80
2023/07/22 01:43:49;;;;;;;13.27;9.03;;;12.70;99.90;;;;;;5098324;28;20243;-80
2023/07/22 01:46:16;;;;;;;15.80;8.80;;;12.60;99.90;;;;;;5097927;28;20193;-81
2023/07/22 01:48:43;;;;;;;14.43;8.97;;;12.70;99.90;;;;;;5097929;28;20204;-80
2023/07/22 01:51:11;;;;;;;14.60;8.37;;;12.70;99.90;;;;;;5098425;28;20285;-78
2023/07/22 01:53:38;;;;;;;17.00;8.90;;;12.60;99.90;;;;;;5097728;28;20249;-81
2023/07/22 01:56:06;;;;;;;15.27;8.10;;;12.60;99.90;;;;;;5097279;28;20205;-78
2023/07/22 01:58:34;;;;;;;12.87;8.00;;;12.50;99.90;;;;;;5097170;28;20197;-78
2023/07/22 02:01:01;;;;;;;14.83;8.30;;;12.40;99.90;;;;;;5097942;28;20205;-79
2023/07/22 02:03:28;;;;;;;13.23;7.73;;;12.40;99.90;;;;;;5097063;28;20277;-81
2023/07/22 02:06:01;;;;;;;15.13;8.40;;;12.30;99.90;;;;;;5097118;28;20197;-78
2023/07/22 02:08:28;;;;;;;16.97;8.60;;;12.40;99.90;;;;;;5096691;28;20224;-81
2023/07/22 02:10:55;;;;;;;14.70;8.60;;;12.40;99.90;;;;;;5097554;28;20204;-77
2023/07/22 02:13:22;;;;;;;16.40;8.43;;;12.40;99.90;;;;;;5097613;28;20218;-79
2023/07/22 02:15:50;;;;;;;15.50;8.70;;;12.50;99.90;;;;;;5097263;28;20200;-81
2023/07/22 02:18:17;;;;;;;13.13;8.20;;;12.30;99.90;;;;;;5097164;28;20216;-80
2023/07/22 02:20:44;;;;;;;12.80;8.00;;;12.40;99.90;;;;;;5097377;28;20200;-78
2023/07/22 02:23:11;;;;;;;13.27;7.67;;;12.40;99.90;;;;;;5097338;28;20254;-81
2023/07/22 02:25:37;;;;;;;11.97;7.17;;;12.50;99.90;;;;;;5096892;28;20233;-78
2023/07/22 02:28:06;;;;;;;11.77;7.73;;;12.60;99.90;;;;;;5096830;28;20209;-79
2023/07/22 02:30:35;;;;;;;15.47;7.97;;;12.70;99.90;;;;;;5097345;28;20198;-79
2023/07/22 02:33:03;;;;;;;16.50;8.10;;;12.70;99.90;;;;;;5097006;28;20213;-81
2023/07/22 02:35:30;;;;;;;13.63;8.30;;;12.70;99.90;;;;;;5097791;28;20737;-80
2023/07/22 02:37:57;;;;;;;17.50;8.07;;;12.80;99.90;;;;;;5096994;28;20236;-80
2023/07/22 02:40:24;;;;;;;16.07;8.10;;;12.80;99.90;;;;;;5097554;28;20847;-78
2023/07/22 02:42:51;;;;;;;15.20;8.23;;;12.80;99.90;;;;;;5096711;28;20232;-81
2023/07/22 02:45:18;;;;;;;15.80;7.73;;;12.70;99.90;;;;;;5097270;28;20284;-82
2023/07/22 02:47:44;;;;;;;13.87;7.70;;;12.70;99.90;;;;;;5085726;28;20194;-78
2023/07/22 02:50:15;;;;;;;12.70;7.37;;;12.70;99.90;;;;;;5076745;28;20293;-81
2023/07/22 02:52:42;;;;;;;12.53;8.13;;;12.80;99.90;;;;;;5076166;28;20234;-81
2023/07/22 02:55:11;;;;;;;13.63;7.43;;;12.80;99.90;;;;;;5096352;28;20664;-79
2023/07/22 02:57:38;;;;;;;12.90;7.80;;;12.80;99.90;;;;;;5095214;28;20202;-81
2023/07/22 03:00:08;;;;;;;15.20;7.67;;;12.80;99.90;;;;;;5096069;28;20193;-80
2023/07/22 03:02:35;;;;;;;16.27;7.10;;;12.70;99.90;;;;;;5096210;28;20225;-78
2023/07/22 03:05:03;;;;;;;14.53;8.20;;;12.70;99.90;;;;;;5096374;28;20212;-80
2023/07/22 03:07:31;;;;;;;13.43;7.60;;;12.70;99.90;;;;;;5096031;28;20198;-78
2023/07/22 03:09:59;;;;;;;14.40;7.63;;;12.60;99.90;;;;;;5095148;28;20198;-80
2023/07/22 03:12:25;;;;;;;15.83;7.63;;;12.60;99.90;;;;;;5096129;28;20222;-79
2023/07/22 03:14:52;;;;;;;14.90;8.13;;;12.50;99.90;;;;;;5095962;28;20593;-79
2023/07/22 03:17:19;;;;;;;14.93;7.40;;;12.60;99.90;;;;;;5096123;28;20244;-81
2023/07/22 03:19:46;;;;;;;14.70;7.33;;;12.60;99.90;;;;;;5096332;28;20288;-79
2023/07/22 03:22:15;;;;;;;14.10;7.70;;;12.70;99.90;;;;;;5096052;28;20308;-81
2023/07/22 03:24:44;;;;;;;13.93;7.40;;;12.60;99.90;;;;;;5095508;28;20193;-80
2023/07/22 03:27:11;;;;;;;12.73;7.50;;;12.50;99.90;;;;;;5094578;28;20278;-79
2023/07/22 03:29:38;;;;;;;16.67;7.87;;;12.50;99.90;;;;;;5095410;28;20261;-78
2023/07/22 03:32:06;;;;;;;17.10;8.13;;;12.60;99.90;;;;;;5095093;28;20712;-81
2023/07/22 03:34:33;;;;;;;15.13;8.10;;;12.60;99.90;;;;;;5096903;28;20683;-81
2023/07/22 03:37:00;;;;;;;13.53;7.60;;;12.50;99.90;;;;;;5095820;28;20227;-82
2023/07/22 03:39:27;;;;;;;15.73;8.67;;;12.50;99.90;;;;;;5096267;28;20281;-81
2023/07/22 03:41:55;;;;;;;13.40;8.40;;;12.60;99.90;;;;;;5096446;28;20309;-81
2023/07/22 03:44:22;;;;;;;14.67;7.60;;;12.60;99.90;;;;;;5095650;28;20216;-82
2023/07/22 03:46:48;;;;;;;15.57;7.87;;;12.60;99.90;;;;;;5095332;28;20673;-77
2023/07/22 03:49:15;;;;;;;14.13;7.37;;;12.70;99.90;;;;;;5096393;28;20269;-78
2023/07/22 03:51:42;;;;;;;13.63;7.50;;;12.80;99.90;;;;;;5096054;28;20209;-81
2023/07/22 03:54:09;;;;;;;13.87;8.03;;;12.70;99.90;;;;;;5096125;28;20269;-80
2023/07/22 03:56:35;;;;;;;15.53;7.47;;;12.80;99.90;;;;;;5094970;28;20210;-80
2023/07/22 03:59:04;;;;;;;13.40;7.33;;;12.80;99.90;;;;;;5095148;28;20259;-79
2023/07/22 04:01:30;;;;;;;14.03;7.63;;;12.80;99.90;;;;;;5095224;28;20247;-78
2023/07/22 04:03:57;;;;;;;13.30;7.07;;;12.80;99.90;;;;;;5095852;28;20241;-76
2023/07/22 04:06:24;;;;;;;16.50;7.30;;;12.70;99.90;;;;;;5094841;28;20326;-78
2023/07/22 04:08:51;;;;;;;13.93;7.77;;;12.80;99.90;;;;;;5095384;28;20205;-80
2023/07/22 04:11:18;;;;;;;15.17;7.97;;;12.90;99.90;;;;;;5094502;28;20204;-78
2023/07/22 04:13:44;;;;;;;14.47;6.57;;;13.00;99.90;;;;;;5094875;28;20568;-79
2023/07/22 04:16:14;;;;;;;14.40;7.57;;;13.10;99.90;;;;;;5094635;28;20725;-79
2023/07/22 04:18:40;;;;;;;11.97;7.70;;;13.40;99.90;;;;;;5094986;28;20265;-80
2023/07/22 04:21:07;;;;;;;16.40;7.37;;;13.30;99.90;;;;;;5094339;28;20301;-81
2023/07/22 04:23:34;;;;;;;14.90;6.87;;;13.20;99.90;;;;;;5094110;28;20313;-79
2023/07/22 04:26:04;;;;;;;18.23;8.27;;;13.00;99.90;;;;;;5093903;28;20225;-81
2023/07/22 04:28:31;;;;;;;12.63;6.70;;;13.10;99.90;;;;;;5093866;28;20210;-81
2023/07/22 04:31:00;;;;;;;14.60;7.43;;;13.20;99.90;;;;;;5094372;28;20700;-81
2023/07/22 04:33:28;;;;;;;11.40;6.87;;;13.20;99.90;;;;;;5094297;28;20209;-78
2023/07/22 04:35:58;;;;;;;12.17;6.87;;;13.10;99.90;;;;;;5094399;28;20201;-78
2023/07/22 04:38:25;;;;;;;12.07;6.83;;;13.30;99.90;;;;;;5093705;28;20203;-77
2023/07/22 04:40:52;;;;;;;10.30;6.50;;;13.40;99.90;;;;;;5093871;28;20251;-80
2023/07/22 04:43:18;;;;;;;14.30;6.97;;;13.50;99.90;;;;;;5093735;28;20956;-80
2023/07/22 04:45:47;;;;;;;13.17;7.40;;;13.40;99.90;;;;;;5094313;28;20201;-80
2023/07/22 04:48:15;;;;;;;11.93;6.53;;;13.50;99.90;;;;;;5093507;28;20700;-78
2023/07/22 04:50:45;;;;;;;13.67;7.63;;;13.40;99.90;;;;;;5093684;28;20205;-80
2023/07/22 04:53:13;;;;;;;13.30;6.57;;;13.50;99.90;;;;;;5093752;28;20221;-80
2023/07/22 04:55:41;;;;;;;15.23;7.57;;;13.40;99.90;;;;;;5094997;28;20198;-80
2023/07/22 04:58:08;;;;;;;10.50;6.57;;;13.40;99.90;;;;;;5094544;28;20237;-80
2023/07/22 05:00:36;;;;;;;15.23;7.10;;;13.50;99.90;;;;;;5095200;28;20198;-81
2023/07/22 05:03:04;;;;;;;14.67;7.07;;;13.60;99.90;;;;;;5094301;28;20340;-81
2023/07/22 05:05:30;;;;;;;16.90;7.97;;;13.70;99.90;;;;;;5094384;28;20204;-80
2023/07/22 05:07:59;;;;;;;12.70;7.57;;;13.60;99.90;;;;;;5094306;28;20292;-82
2023/07/22 05:10:26;;;;;;;12.13;6.53;;;13.70;99.90;;;;;;5093847;28;20205;-82
2023/07/22 05:12:52;;;;;;;14.35;8.50;;;13.60;99.90;;;;;;5093597;28;20241;-81
2023/07/22 05:15:20;;;;;;;13.88;7.43;;;13.90;99.90;;;;;;5093897;28;20198;-82
2023/07/22 05:17:47;;;;;;;12.27;6.22;;;13.70;99.90;;;;;;5097150;28;20225;-81
2023/07/22 05:20:14;;;;;;;12.07;6.57;;;13.90;99.90;;;;;;5097858;28;20575;-79
2023/07/22 05:22:41;;;;;;;11.55;6.63;;;13.90;99.90;;;;;;5097025;28;20221;-79
2023/07/22 05:25:10;;;;;;;13.50;6.72;;;14.00;99.90;;;;;;5097715;28;20248;-81
2023/07/22 05:27:37;;;;;;;11.27;5.80;;;13.90;99.90;;;;;;5097351;28;20204;-82
2023/07/22 05:30:05;;;;;;;11.23;5.78;;;14.10;99.90;;;;;;5097405;28;20727;-83
2023/07/22 05:32:32;;;;;;;11.02;6.22;;;14.20;99.90;;;;;;5094281;28;20305;-81
2023/07/22 05:35:01;;;;;;;10.95;6.28;;;14.30;99.90;;;;;;5086910;28;20204;-79
2023/07/22 05:37:29;;;;;;;12.60;6.68;;;14.40;99.90;;;;;;5096158;28;20202;-81
2023/07/22 05:39:56;;;;;;;11.65;6.28;;;14.40;99.90;;;;;;5086405;28;20205;-80
2023/07/22 05:42:24;;;;;;;12.10;6.80;;;14.30;99.90;;;;;;5083354;28;20221;-79
2023/07/22 05:44:51;;;;;;;13.68;7.05;;;14.50;99.90;;;;;;5077637;28;20202;-79
2023/07/22 05:47:18;;;;;;;12.93;7.05;;;14.40;99.90;;;;;;5080817;28;20207;-79
2023/07/22 05:49:45;;;;;;;10.93;6.43;;;14.40;99.90;;;;;;5087547;28;20202;-79
2023/07/22 05:52:12;;;;;;;10.00;6.00;;;14.60;99.90;;;;;;5085030;28;20221;-78
2023/07/22 05:54:39;;;;;;;13.38;6.25;;;14.80;99.90;;;;;;5076931;28;20744;-79
2023/07/22 05:57:06;;;;;;;12.73;6.80;;;15.00;99.90;;;;;;5090072;28;20216;-79
2023/07/22 05:59:35;;;;;;;12.95;6.82;;;15.00;99.90;;;;;;5077016;28;20198;-82
2023/07/22 06:02:02;;;;;;;12.93;6.93;;;15.00;99.90;;;;;;5095407;28;20308;-79
2023/07/22 06:04:30;;;;;;;12.57;6.30;;;15.00;99.90;;;;;;5076980;28;20210;-81
2023/07/22 06:06:57;;;;;;;12.75;6.40;;;15.10;99.90;;;;;;5092983;28;20661;-82
2023/07/22 06:09:24;;;;;;;10.48;6.22;;;15.00;99.90;;;;;;5078639;28;20662;-79
2023/07/22 06:11:51;;;;;;;14.93;6.40;;;15.10;99.90;;;;;;5091596;28;20775;-81
2023/07/22 06:14:18;;;;;;;14.20;6.88;;;15.10;99.90;;;;;;5078037;28;20562;-82
2023/07/22 06:16:46;;;;;;;13.70;7.07;;;15.20;99.90;;;;;;5084617;28;20199;-79
2023/07/22 06:19:13;;;;;;;12.60;6.47;;;15.20;99.90;;;;;;5093971;28;20202;-80
2023/07/22 06:21:40;;;;;;;17.13;7.25;;;15.30;99.90;;;;;;5082672;28;20312;-81
2023/07/22 06:24:07;;;;;;;13.15;6.90;;;15.40;99.90;;;;;;5090279;28;20301;-81
2023/07/22 06:26:37;;;;;;;13.43;6.60;;;15.50;99.90;;;;;;5087748;28;20209;-81
2023/07/22 06:29:08;;;;;;;12.20;7.35;;;15.50;99.90;;;;;;5079188;28;20199;-81
2023/07/22 06:31:35;;;;;;;14.95;7.93;;;15.50;99.90;;;;;;5087048;28;20194;-83
2023/07/22 06:34:03;;;;;;;15.38;7.60;;;15.50;99.90;;;;;;5090277;28;20197;-81
2023/07/22 06:36:30;;;;;;;14.38;7.93;;;15.50;99.90;;;;;;5096025;28;20204;-80
2023/07/22 06:38:56;;;;;;;12.15;7.10;;;15.50;99.90;;;;;;5089926;28;20717;-80
2023/07/22 06:41:25;;;;;;;11.93;6.85;;;15.60;99.90;;;;;;5078259;28;20202;-81
2023/07/22 06:43:52;;;;;;;12.85;7.00;;;15.80;99.90;;;;;;5086150;28;20233;-80
2023/07/22 06:46:21;;;;;;;12.07;7.35;;;15.80;99.90;;;;;;5086651;28;20206;-81
2023/07/22 06:48:48;;;;;;;14.25;7.90;;;16.00;99.90;;;;;;5096008;28;20216;-82
2023/07/22 06:51:17;;;;;;;17.10;8.90;;;16.00;99.90;;;;;;5095188;28;20244;-82
2023/07/22 06:53:44;;;;;;;13.88;7.53;;;16.10;99.90;;;;;;5084752;28;20210;-83
2023/07/22 06:56:11;;;;;;;14.02;7.63;;;15.90;99.90;;;;;;5082829;28;20631;-81
2023/07/22 06:58:38;;;;;;;13.07;8.10;;;16.00;99.90;;;;;;5094967;28;20228;-84
2023/07/22 07:01:05;;;;;;;15.50;7.93;;;16.20;99.90;;;;;;5094873;28;20208;-81
2023/07/22 07:03:32;;;;;;;13.35;8.05;;;16.10;99.90;;;;;;5095240;28;20229;-82
2023/07/22 07:05:59;;;;;;;15.45;8.65;;;16.10;99.90;;;;;;5093696;28;20209;-81
2023/07/22 07:08:28;;;;;;;14.40;6.80;;;15.90;99.90;;;;;;5079395;28;20265;-84
2023/07/22 07:10:55;;;;;;;20.17;7.88;;;15.90;99.90;;;;;;5092381;28;20198;-81
2023/07/22 07:13:22;;;;;;;13.85;8.23;;;16.20;99.90;;;;;;5095308;28;20220;-82
2023/07/22 07:15:49;;;;;;;14.00;8.43;;;16.40;99.90;;;;;;5095302;28;20263;-84
2023/07/22 07:18:17;;;;;;;14.65;8.00;;;16.50;99.90;;;;;;5094192;28;20330;-82
2023/07/22 07:20:45;;;;;;;14.13;7.72;;;16.50;99.90;;;;;;5095522;28;20582;-81
2023/07/22 07:23:12;;;;;;;16.50;8.55;;;16.50;99.90;;;;;;5092389;28;20678;-83
2023/07/22 07:25:41;;;;;;;14.10;7.70;;;16.30;99.90;;;;;;5093735;28;20661;-82
2023/07/22 07:28:08;;;;;;;13.07;7.65;;;16.30;99.90;;;;;;5094336;28;20197;-81
2023/07/22 07:30:35;;;;;;;13.18;7.85;;;16.30;99.90;;;;;;5094723;28;20202;-81
2023/07/22 07:33:01;;;;;;;14.68;8.13;;;16.20;99.90;;;;;;5094226;28;20222;-82
2023/07/22 07:35:28;;;;;;;14.02;8.25;;;16.10;99.90;;;;;;5093081;28;20197;-81
2023/07/22 07:37:55;;;;;;;13.45;8.05;;;16.00;99.90;;;;;;5094889;28;20625;-80
2023/07/22 07:40:22;;;;;;;12.25;7.30;;;16.20;99.90;;;;;;5093567;28;20447;-80
2023/07/22 07:42:50;;;;;;;14.43;8.00;;;16.10;99.90;;;;;;5096484;28;20285;-80
2023/07/22 07:45:17;;;;;;;12.77;7.47;;;16.20;99.90;;;;;;5097017;28;20202;-81
2023/07/22 07:47:44;;;;;;;14.63;7.75;;;16.20;99.90;;;;;;5096198;28;20229;-79
2023/07/22 07:50:11;;;;;;;11.07;6.95;;;16.30;99.90;;;;;;5096942;28;20581;-79
2023/07/22 07:52:38;;;;;;;14.63;6.93;;;16.40;99.90;;;;;;5095911;28;20217;-80
2023/07/22 07:55:06;;;;;;;13.07;7.55;;;16.40;99.90;;;;;;5096963;28;20617;-81
2023/07/22 07:57:33;;;;;;;13.50;7.78;;;16.60;99.90;;;;;;5096049;28;20278;-80
2023/07/22 08:00:01;;;;;;;11.07;7.13;;;16.50;99.90;;;;;;5096470;28;20692;-81
2023/07/22 08:02:28;;;;;;;12.02;7.00;;;16.60;99.90;;;;;;5096384;28;20742;-81
2023/07/22 08:04:55;;;;;;;10.75;6.55;;;16.60;99.90;;;;;;5096514;28;20723;-79
2023/07/22 08:07:22;;;;;;;10.77;7.00;;;16.70;99.90;;;;;;5096130;28;20220;-80
2023/07/22 08:09:49;;;;;;;9.93;5.90;;;16.50;99.90;;;;;;5095740;28;20197;-78
2023/07/22 08:12:18;;;;;;;12.70;7.20;;;16.60;99.90;;;;;;5096010;28;20267;-78
2023/07/22 08:14:45;;;;;;;13.85;7.18;;;16.50;99.90;;;;;;5095987;28;20635;-79
2023/07/22 08:17:13;;;;;;;10.98;7.05;;;16.50;99.90;;;;;;5096105;28;20704;-80
2023/07/22 08:19:40;;;;;;;12.88;8.02;;;16.80;99.90;;;;;;5096004;28;20205;-80
2023/07/22 08:22:07;;;;;;;14.40;7.90;;;16.70;99.90;;;;;;5096231;28;20236;-80
2023/07/22 08:24:33;;;;;;;13.75;8.52;;;16.60;99.90;;;;;;5096831;28;20717;-81
2023/07/22 08:27:00;;;;;;;13.63;8.25;;;16.90;99.90;;;;;;5096375;28;20208;-80
2023/07/22 08:29:27;;;;;;;13.80;8.82;;;17.00;99.90;;;;;;5095651;28;20292;-80
2023/07/22 08:31:54;;;;;;;14.48;8.95;;;17.10;99.90;;;;;;5095570;28;20221;-79
2023/07/22 08:34:22;;;;;;;14.85;8.82;;;17.10;99.90;;;;;;5095427;28;20236;-79
2023/07/22 08:36:49;;;;;;;15.02;9.38;;;17.40;99.90;;;;;;5095361;28;20202;-79
2023/07/22 08:39:16;;;;;;;14.05;9.15;;;17.70;99.90;;;;;;5096132;28;20204;-80
2023/07/22 08:41:49;;;;;;;14.40;9.10;;;17.70;99.90;;;;;;5095746;28;20275;-80
2023/07/22 08:44:19;;;;;;;13.40;8.45;;;17.60;99.90;;;;;;5095916;28;20765;-79
2023/07/22 08:46:47;;;;;;;15.40;8.82;;;17.50;99.90;;;;;;5095891;28;20224;-80
2023/07/22 08:49:16;;;;;;;13.55;8.68;;;17.90;99.90;;;;;;5095996;28;20205;-80
2023/07/22 08:51:46;;;;;;;16.08;10.15;;;18.10;99.90;;;;;;5097928;28;20225;-80
2023/07/22 08:54:14;;;;;;;17.48;10.55;;;18.50;99.90;;;;;;5099373;28;20212;-80
2023/07/22 08:56:42;;;;;;;17.10;9.82;;;18.60;99.90;;;;;;5099699;28;20209;-79
2023/07/22 08:59:10;;;;;;;16.27;9.80;;;18.50;99.90;;;;;;5099413;28;20201;-79
2023/07/22 09:01:39;;;;;;;12.73;8.60;;;18.50;99.90;;;;;;5098965;28;20197;-79
2023/07/22 09:04:06;;;;;;;15.70;9.45;;;18.50;99.90;;;;;;5099406;28;20713;-80
2023/07/22 09:06:34;;;;;;;16.40;9.55;;;18.60;99.90;;;;;;5100196;28;20209;-80
2023/07/22 09:09:04;;;;;;;13.70;8.90;;;18.70;99.90;;;;;;5099473;28;20219;-78
2023/07/22 09:11:31;;;;;;;16.63;10.98;;;18.60;99.90;;;;;;5099568;28;20614;-79
2023/07/22 09:13:59;;;;;;;16.25;9.02;;;18.50;99.90;;;;;;5099097;28;20198;-79
2023/07/22 09:16:27;;;;;;;15.90;9.55;;;18.70;99.90;;;;;;5099145;28;20421;-80
2023/07/22 09:18:56;;;;;;;15.20;10.38;;;18.90;99.90;;;;;;5098313;28;20202;-82
2023/07/22 09:21:23;;;;;;;15.25;9.63;;;19.10;99.90;;;;;;5098688;28;20681;-82
2023/07/22 09:23:49;;;;;;;17.02;9.82;;;19.30;99.90;;;;;;5097591;28;20226;-80
2023/07/22 09:26:19;;;;;;;14.23;9.30;;;19.40;99.90;;;;;;5096460;28;20201;-79
2023/07/22 09:28:49;;;;;;;14.45;8.80;;;19.80;99.90;;;;;;5084778;28;20198;-80
2023/07/22 09:31:16;;;;;;;13.05;9.32;;;19.90;99.90;;;;;;5083792;28;20189;-80
2023/07/22 09:33:43;;;;;;;11.77;8.10;;;20.20;99.90;;;;;;5087932;28;20209;-80
2023/07/22 09:36:11;;;;;;;12.57;7.70;;;20.10;99.90;;;;;;5097450;28;20198;-78
2023/07/22 09:38:38;;;;;;;12.25;7.57;;;20.30;99.90;;;;;;5086493;28;20198;-80
2023/07/22 09:41:05;;;;;;;10.10;7.38;;;20.10;99.90;;;;;;5081921;28;20210;-81
2023/07/22 09:43:38;;;;;;;10.52;6.95;;;19.70;99.90;;;;;;5077050;28;20210;-82
2023/07/22 09:46:09;;;;;;;11.43;6.45;;;20.60;99.90;;;;;;5086992;28;20197;-82
2023/07/22 09:48:43;;;;;;;12.23;7.22;;;20.70;99.90;;;;;;5085211;28;20255;-83
2023/07/22 09:51:14;;;;;;;9.98;6.57;;;20.60;99.90;;;;;;5089903;28;20202;-82
2023/07/22 09:53:46;;;;;;;9.90;6.72;;;20.20;99.90;;;;;;5091296;28;20234;-82
2023/07/22 09:56:14;;;;;;;9.45;5.90;;;20.80;99.90;;;;;;5091170;28;20202;-82
2023/07/22 09:58:46;;;;;;;12.82;6.03;;;20.00;99.90;;;;;;5088263;28;20224;-79
2023/07/22 10:01:17;;;;;;;7.32;5.75;;;20.40;99.90;;;;;;5086819;28;20647;-82
2023/07/22 10:03:46;;;;;;;7.93;5.22;;;20.50;99.90;;;;;;5079231;28;20703;-79
2023/07/22 10:06:15;;;;;;;7.55;5.60;;;20.40;99.90;;;;;;5089521;28;20595;-80
2023/07/22 10:08:47;;;;;;;8.68;5.78;;;20.70;99.90;;;;;;5091885;28;20208;-82
2023/07/22 10:11:16;;;;;;;8.15;6.32;;;20.50;99.90;;;;;;5082623;28;20202;-80
2023/07/22 10:13:44;;;;;;;8.40;5.82;;;20.40;99.90;;;;;;5078686;28;20240;-81
2023/07/22 10:16:12;;;;;;;9.20;5.38;;;20.40;99.90;;;;;;5084586;28;20210;-81
2023/07/22 10:18:41;;;;;;;9.93;5.30;;;20.60;99.90;;;;;;5096027;28;20209;-81
2023/07/22 10:21:09;;;;;;;8.10;5.30;;;20.60;99.90;;;;;;5096759;28;20198;-79
2023/07/22 10:23:39;;;;;;;6.45;4.65;;;20.90;99.90;;;;;;5095360;28;20223;-78
2023/07/22 10:26:06;;;;;;;7.30;5.07;;;21.40;99.90;;;;;;5082186;28;20204;-81
2023/07/22 10:28:33;;;;;;;7.82;5.38;;;21.50;99.90;;;;;;5081041;28;20205;-82
2023/07/22 10:31:02;;;;;;;6.95;4.95;;;21.30;99.90;;;;;;5097386;28;20202;-79
2023/07/22 10:33:29;;;;;;;9.25;5.18;;;21.30;99.90;;;;;;5082633;28;20218;-81
2023/07/22 10:36:04;;;;;;;7.70;5.63;;;20.90;99.90;;;;;;5092756;28;20198;-78
2023/07/22 10:38:32;;;;;;;6.93;5.18;;;21.00;99.90;;;;;;5090461;28;20220;-78
2023/07/22 10:40:59;;;;;;;9.18;6.05;;;20.90;99.90;;;;;;5084301;28;20248;-78
2023/07/22 10:43:28;;;;;;;7.63;5.47;;;20.80;99.90;;;;;;5088759;28;20213;-82
2023/07/22 10:45:56;;;;;;;6.72;4.63;;;20.90;99.90;;;;;;5093226;28;20225;-79
2023/07/22 10:48:27;;;;;;;7.93;4.88;;;20.60;99.90;;;;;;5087617;28;20209;-81
2023/07/22 10:50:58;;;;;;;9.15;6.03;;;20.60;99.90;;;;;;5075905;28;20206;-83
2023/07/22 10:53:30;;;;;;;6.22;4.63;;;20.70;99.90;;;;;;5084833;28;20313;-82
2023/07/22 10:56:08;;;;;;;8.95;5.10;;;21.60;99.90;;;;;;5087765;28;20198;-81
2023/07/22 10:58:59;;;;;;;7.00;4.72;;;21.90;99.90;;;;;;5083388;28;20201;-82
2023/07/22 11:01:32;;;;;;;7.07;5.00;;;21.20;99.90;;;;;;5088633;28;20197;-81
2023/07/22 11:04:30;;;;;;;6.22;4.88;;;20.50;99.90;;;;;;5085389;28;20706;-79
2023/07/22 11:06:59;;;;;;;7.63;4.70;;;20.50;99.90;;;;;;5075629;28;20202;-81
2023/07/22 11:09:36;;;;;;;7.30;4.75;;;20.20;99.90;;;;;;5086641;28;20225;-82
2023/07/22 11:12:05;;;;;;;6.45;4.55;;;20.10;99.90;;;;;;5088524;28;20221;-82
2023/07/22 11:14:33;;;;;;;5.68;4.07;;;20.40;99.90;;;;;;5085746;28;20199;-78
2023/07/22 11:17:03;;;;;;;8.68;5.28;;;20.30;99.90;;;;;;5089866;28;20201;-81
2023/07/22 11:19:32;;;;;;;5.35;4.47;;;20.50;99.90;;;;;;5078049;28;20198;-79
2023/07/22 11:21:59;;;;;;;6.47;4.68;;;20.90;99.90;;;;;;5076102;28;20218;-82
2023/07/22 11:24:26;;;;;;;6.63;4.80;;;21.20;99.90;;;;;;5082947;28;20730;-81
2023/07/22 11:26:54;;;;;;;8.23;4.57;;;21.40;99.90;;;;;;5080547;28;20198;-82
2023/07/22 11:29:21;;;;;;;6.40;4.43;;;21.80;99.90;;;;;;5086517;28;20634;-81
2023/07/22 11:31:49;;;;;;;7.78;4.63;;;21.80;99.90;;;;;;5091135;28;20296;-82
2023/07/22 11:34:18;;;;;;;5.95;4.55;;;21.80;99.90;;;;;;5092004;28;20224;-82
2023/07/22 11:36:46;;;;;;;8.27;4.75;;;22.00;99.90;;;;;;5085343;28;20268;-81
2023/07/22 11:39:19;;;;;;;6.80;4.57;;;22.50;99.90;;;;;;5083279;28;20205;-82
2023/07/22 11:41:47;;;;;;;4.72;4.22;;;22.30;99.90;;;;;;5077129;28;20222;-82
2023/07/22 11:44:15;;;;;;;5.95;4.65;;;22.00;99.90;;;;;;5092457;28;20248;-83
2023/07/22 11:46:53;;;;;;;5.88;4.78;;;21.60;99.90;;;;;;5078254;28;20708;-83
2023/07/22 11:49:25;;;;;;;8.20;4.85;;;21.60;99.90;;;;;;5075309;28;20200;-83
2023/07/22 11:51:55;;;;;;;7.57;5.38;;;21.50;99.90;;;;;;5087942;28;20287;-82
2023/07/22 11:54:23;;;;;;;6.78;4.57;;;20.90;99.90;;;;;;5087646;28;20198;-83
2023/07/22 11:56:49;;;;;;;8.00;5.20;;;21.50;99.90;;;;;;5090257;28;20300;-82
2023/07/22 11:59:16;;;;;;;6.85;4.82;;;21.60;99.90;;;;;;5094804;28;20634;-83
2023/07/22 12:01:45;;;;;;;6.05;4.65;;;21.90;99.90;;;;;;5093022;28;20321;-82
2023/07/22 12:04:14;;;;;;;5.50;4.60;;;22.20;99.90;;;;;;5084645;28;20255;-83
2023/07/22 12:06:41;;;;;;;7.15;4.88;;;22.70;99.90;;;;;;5090203;28;20356;-83
2023/07/22 12:09:11;;;;;;;7.80;4.70;;;22.60;99.90;;;;;;5082685;28;20568;-81
2023/07/22 12:11:38;;;;;;;5.68;4.63;;;22.40;99.90;;;;;;5090852;28;20609;-81
2023/07/22 12:14:10;;;;;;;5.53;4.53;;;21.90;87.50;;;;;;5081217;28;20234;-81
2023/07/22 12:16:38;;;;;;;6.20;4.28;;;22.20;99.10;;;;;;5092238;28;20201;-81
2023/07/22 12:19:05;;;;;;;5.70;4.50;;;22.50;94.60;;;;;;5079041;28;20646;-82
2023/07/22 12:21:33;;;;;;;7.43;4.78;;;22.90;98.30;;;;;;5082897;28;20266;-82
2023/07/22 12:24:00;;;;;;;5.75;4.10;;;22.80;77.70;;;;;;5086163;28;20193;-82
2023/07/22 12:26:28;;;;;;;6.10;4.25;;;22.90;67.90;;;;;;5079529;28;20222;-80
2023/07/22 12:28:55;;;;;;;4.63;3.47;;;23.30;53.60;;;;;;5083272;28;20217;-80
2023/07/22 12:31:22;;;;;;;4.50;3.88;;;23.40;43.80;;;;;;5081288;28;20197;-81
2023/07/22 12:33:49;;;;;;;5.97;4.47;;;23.20;28.70;;;;;;5090948;28;20198;-80
2023/07/22 12:36:16;;;;;;;12.05;4.65;;;23.50;54.00;;;;;;5087747;28;20205;-82
2023/07/22 12:38:43;;;;;;;4.57;3.63;;;23.80;31.40;;;;;;5093712;28;20289;-81
2023/07/22 12:41:10;;;;;;;4.20;3.63;;;24.00;46.70;;;;;;5083206;28;20194;-82